Time;durP1;ratioP1;P1;durP2;ratioP2;P2;SDS_P1;SDS_P2;PMS_P1;PMS_P2;Temp;Humidity;BMP_temperature;BMP_pressure;BME280_temperature;BME280_humidity;BME280_pressure;Samples;Min_cycle;Max_cycle;Signal;HPM_P1;HPM_P2
2023/03/24 00:01:21;;;;;;;3.22;1.60;;;;;;;10.84;93.35;99795.53;5031305;28;20101;-79
2023/03/24 00:03:50;;;;;;;3.15;1.70;;;;;;;10.87;93.22;99791.94;5028708;28;20057;-80
2023/03/24 00:06:17;;;;;;;3.65;2.17;;;;;;;10.88;93.64;99791.88;5030197;28;20025;-79
2023/03/24 00:08:46;;;;;;;2.92;1.73;;;;;;;10.90;93.14;99779.66;5030336;28;20022;-80
2023/03/24 00:11:13;;;;;;;3.95;1.77;;;;;;;10.91;93.50;99770.09;5029377;28;20221;-79
2023/03/24 00:13:39;;;;;;;4.70;1.90;;;;;;;10.90;93.75;99768.41;5030921;28;20057;-79
2023/03/24 00:16:07;;;;;;;5.30;2.08;;;;;;;10.89;93.98;99757.13;5031516;28;20021;-79
2023/03/24 00:18:33;;;;;;;3.17;1.65;;;;;;;10.91;93.84;99759.69;5031228;28;20086;-79
2023/03/24 00:20:59;;;;;;;4.18;1.80;;;;;;;10.90;94.15;99742.38;5030765;28;20365;-79
2023/03/24 00:23:26;;;;;;;3.63;1.90;;;;;;;10.90;94.25;99744.97;5031363;28;20104;-79
2023/03/24 00:26:13;;;;;;;5.03;1.88;;;;;;;10.94;93.88;99749.13;5031191;28;20032;-79
2023/03/24 00:28:41;;;;;;;4.35;2.08;;;;;;;10.94;94.17;99738.72;5029687;28;20120;-79
2023/03/24 00:31:07;;;;;;;5.00;2.00;;;;;;;10.97;93.85;99745.56;5032583;28;20474;-79
2023/03/24 00:33:34;;;;;;;5.43;2.10;;;;;;;10.98;93.79;99740.25;5030503;28;20369;-79
2023/03/24 00:36:01;;;;;;;2.88;1.77;;;;;;;10.98;94.05;99745.47;5031359;28;20017;-79
2023/03/24 00:38:26;;;;;;;4.45;1.90;;;;;;;11.02;93.84;99756.56;5031152;28;20028;-79
2023/03/24 00:40:52;;;;;;;5.00;1.90;;;;;;;11.06;93.75;99751.19;5030650;28;20400;-79
2023/03/24 00:43:18;;;;;;;3.35;1.77;;;;;;;11.07;93.91;99749.41;5029543;28;20152;-79
2023/03/24 00:45:46;;;;;;;4.38;2.17;;;;;;;11.08;93.86;99731.13;5030060;28;20064;-79
2023/03/24 00:48:17;;;;;;;3.38;1.80;;;;;;;11.10;93.58;99727.63;5032059;28;20026;-79
2023/03/24 00:50:49;;;;;;;3.70;1.80;;;;;;;11.13;93.50;99727.47;5031350;28;20507;-79
2023/03/24 00:53:15;;;;;;;3.03;1.83;;;;;;;11.13;93.76;99714.44;5029808;28;20028;-79
2023/03/24 00:55:45;;;;;;;3.10;1.73;;;;;;;11.16;93.53;99703.91;5031093;28;20188;-79
2023/03/24 00:58:16;;;;;;;5.50;1.83;;;;;;;11.21;93.29;99723.59;5030883;28;20021;-79
2023/03/24 01:00:43;;;;;;;2.53;1.55;;;;;;;11.23;93.51;99719.16;5031074;28;20401;-79
2023/03/24 01:03:08;;;;;;;3.38;1.70;;;;;;;11.24;93.46;99709.59;5030254;28;20115;-80
2023/03/24 01:05:35;;;;;;;3.53;1.77;;;;;;;11.27;93.25;99706.84;5033206;28;20053;-79
2023/03/24 01:08:03;;;;;;;4.80;1.80;;;;;;;11.28;93.39;99697.28;5030251;28;20025;-79
2023/03/24 01:10:32;;;;;;;2.42;1.60;;;;;;;11.29;93.53;99691.97;5028904;28;20017;-80
2023/03/24 01:12:59;;;;;;;2.85;1.60;;;;;;;11.31;93.34;99694.53;5028611;28;20060;-79
2023/03/24 01:15:28;;;;;;;3.40;1.80;;;;;;;11.30;93.56;99704.09;5033356;28;20025;-79
2023/03/24 01:17:54;;;;;;;4.03;1.70;;;;;;;11.30;93.72;99696.28;5030036;28;20083;-79
2023/03/24 01:20:22;;;;;;;3.38;1.70;;;;;;;11.32;93.67;99693.63;5030180;28;20516;-79
2023/03/24 01:22:47;;;;;;;2.95;1.70;;;;;;;11.30;93.92;99688.47;5030085;28;20017;-80
2023/03/24 01:25:15;;;;;;;4.20;1.67;;;;;;;11.30;93.99;99698.88;5031150;28;20322;-78
2023/03/24 01:27:43;;;;;;;2.33;1.60;;;;;;;11.30;94.34;99685.84;5031355;28;20148;-79
2023/03/24 01:30:15;;;;;;;2.72;1.60;;;;;;;11.30;94.42;99678.06;5034572;28;20554;-79
2023/03/24 01:32:40;;;;;;;3.78;1.55;;;;;;;11.30;94.18;99685.84;5033335;28;20036;-79
2023/03/24 01:35:06;;;;;;;3.40;1.65;;;;;;;11.31;94.22;99679.75;5034582;28;20097;-80
2023/03/24 01:37:32;;;;;;;2.65;1.77;;;;;;;11.32;94.88;99680.59;5034249;28;20383;-79
2023/03/24 01:39:57;;;;;;;2.83;1.63;;;;;;;11.29;95.43;99665.94;5034908;28;20029;-79
2023/03/24 01:42:25;;;;;;;6.05;1.90;;;;;;;11.27;95.49;99669.56;5033204;28;20092;-79
2023/03/24 01:44:56;;;;;;;3.88;1.60;;;;;;;11.24;95.57;99663.56;5034295;28;20044;-79
2023/03/24 01:47:21;;;;;;;4.90;1.70;;;;;;;11.21;95.98;99653.28;5033293;28;20022;-79
2023/03/24 01:49:51;;;;;;;5.40;1.80;;;;;;;11.21;96.23;99647.25;5032880;28;20108;-79
2023/03/24 01:52:23;;;;;;;3.35;1.60;;;;;;;11.19;96.15;99655.13;5038885;28;20088;-80
2023/03/24 01:55:00;;;;;;;2.97;1.73;;;;;;;11.20;96.16;99651.59;5034041;28;20036;-79
2023/03/24 01:57:31;;;;;;;3.72;1.60;;;;;;;11.18;96.09;99652.59;5033879;28;20036;-79
2023/03/24 01:59:59;;;;;;;3.13;1.60;;;;;;;11.18;96.47;99647.41;5031680;28;20095;-79
2023/03/24 02:02:26;;;;;;;3.15;1.90;;;;;;;11.18;96.87;99642.19;5033675;28;20036;-79
2023/03/24 02:04:59;;;;;;;2.85;1.75;;;;;;;11.17;97.20;99645.72;5033431;28;20397;-79
2023/03/24 02:07:32;;;;;;;3.55;1.95;;;;;;;11.17;97.14;99637.91;5033252;28;20079;-79
2023/03/24 02:09:59;;;;;;;2.65;1.70;;;;;;;11.16;97.24;99633.63;5037623;28;20021;-79
2023/03/24 02:12:25;;;;;;;2.88;1.90;;;;;;;11.16;97.25;99633.63;5037339;28;20033;-79
2023/03/24 02:14:51;;;;;;;3.35;1.60;;;;;;;11.16;97.34;99637.06;5035822;28;20086;-79
2023/03/24 02:17:59;;;;;;;3.03;1.60;;;;;;;11.16;97.10;99623.19;5033359;28;20472;-79
2023/03/24 02:20:59;;;;;;;3.13;1.70;;;;;;;11.16;97.69;99623.19;5032137;28;20431;-79
2023/03/24 02:23:46;;;;;;;6.30;2.10;;;;;;;11.16;97.75;99624.06;5022629;28;20042;-79
2023/03/24 02:26:23;;;;;;;3.65;1.88;;;;;;;11.16;97.83;99631.00;5033133;28;20406;-79
2023/03/24 02:29:02;;;;;;;2.40;1.70;;;;;;;11.16;98.03;99625.81;5032473;28;20033;-79
2023/03/24 02:31:55;;;;;;;2.60;1.80;;;;;;;11.20;97.49;99632.56;5033628;28;20031;-79
2023/03/24 02:34:30;;;;;;;3.53;1.80;;;;;;;11.19;97.88;99633.47;5034788;28;20024;-79
2023/03/24 02:37:26;;;;;;;5.05;2.00;;;;;;;11.20;97.53;99635.16;5046508;28;20056;-80
2023/03/24 02:40:16;;;;;;;2.33;1.70;;;;;;;11.19;98.10;99628.25;5043956;28;20021;-79
2023/03/24 02:42:47;;;;;;;3.55;2.10;;;;;;;11.22;98.22;99633.31;5032803;28;20100;-79
2023/03/24 02:45:50;;;;;;;3.03;2.25;;;;;;;11.24;98.19;99631.50;5031214;28;20033;-79
2023/03/24 02:48:45;;;;;;;3.50;2.00;;;;;;;11.23;98.32;99627.22;5034173;28;20025;-79
2023/03/24 02:51:26;;;;;;;3.58;2.15;;;;;;;11.23;98.57;99619.41;5031162;28;20124;-79
2023/03/24 02:54:06;;;;;;;4.47;2.20;;;;;;;11.24;98.55;99636.72;5032728;28;20076;-78
2023/03/24 02:57:13;;;;;;;3.63;2.08;;;;;;;11.26;98.27;99640.09;5031429;28;20025;-79
2023/03/24 03:00:09;;;;;;;4.35;2.08;;;;;;;11.27;98.43;99639.16;5047018;28;20031;-79
2023/03/24 03:02:44;;;;;;;2.85;2.03;;;;;;;11.24;98.58;99637.53;5036278;28;20486;-78
2023/03/24 03:05:17;;;;;;;3.55;2.20;;;;;;;11.26;98.34;99650.50;5033065;28;20037;-79
2023/03/24 03:07:45;;;;;;;4.25;2.10;;;;;;;11.26;98.24;99658.31;5032461;28;20057;-78
2023/03/24 03:10:20;;;;;;;4.50;2.00;;;;;;;11.26;98.69;99657.44;5032572;28;20081;-78
2023/03/24 03:12:50;;;;;;;4.47;2.20;;;;;;;11.28;98.51;99668.63;5032547;28;20038;-79
2023/03/24 03:15:25;;;;;;;3.90;1.90;;;;;;;11.27;98.25;99667.81;5036605;28;20048;-79
2023/03/24 03:17:57;;;;;;;3.75;2.20;;;;;;;11.28;98.68;99684.25;5032429;28;20365;-80
2023/03/24 03:20:23;;;;;;;4.00;1.98;;;;;;;11.31;97.61;99678.91;5032224;28;20388;-79
2023/03/24 03:22:55;;;;;;;2.72;1.90;;;;;;;11.31;97.22;99697.13;5033824;28;20049;-79
2023/03/24 03:25:25;;;;;;;3.83;1.45;;;;;;;11.30;95.06;99718.88;5032517;28;20033;-79
2023/03/24 03:27:55;;;;;;;1.98;1.50;;;;;;;11.24;92.90;99715.63;5031568;28;20087;-79
2023/03/24 03:30:24;;;;;;;2.28;1.42;;;;;;;11.21;92.20;99715.78;5030939;28;20025;-78
2023/03/24 03:33:02;;;;;;;3.35;1.30;;;;;;;11.17;92.04;99716.84;5039635;28;20037;-79
2023/03/24 03:36:14;;;;;;;1.60;0.90;;;;;;;11.12;88.34;99716.22;5031263;28;20060;-78
2023/03/24 03:38:59;;;;;;;2.30;0.85;;;;;;;10.99;88.08;99743.72;4968025;28;20517;-78
2023/03/24 03:41:24;;;;;;;2.05;0.80;;;;;;;10.86;85.27;99759.88;4969038;28;20037;-79
2023/03/24 03:43:49;;;;;;;1.08;0.50;;;;;;;10.80;84.02;99773.16;5009470;28;20037;-79
2023/03/24 03:46:16;;;;;;;2.25;0.73;;;;;;;10.75;82.40;99799.38;5029628;28;20028;-79
2023/03/24 03:48:42;;;;;;;3.25;0.77;;;;;;;10.58;83.16;99799.28;5030961;28;20504;-78
2023/03/24 03:51:08;;;;;;;3.10;0.90;;;;;;;10.48;82.89;99784.03;5029938;28;20109;-78
2023/03/24 03:53:48;;;;;;;7.80;1.10;;;;;;;10.42;84.38;99781.69;5029765;28;20036;-78
2023/03/24 03:56:17;;;;;;;5.47;1.00;;;;;;;10.35;83.95;99793.25;5030386;28;20484;-78
2023/03/24 03:58:45;;;;;;;2.92;0.75;;;;;;;10.21;84.15;99808.56;5027969;28;20151;-78
2023/03/24 04:01:14;;;;;;;1.90;0.70;;;;;;;10.16;84.57;99798.38;5045224;28;20518;-79
2023/03/24 04:03:57;;;;;;;1.20;0.70;;;;;;;10.15;85.57;99813.09;5029955;28;20045;-78
2023/03/24 04:06:49;;;;;;;2.83;0.73;;;;;;;10.09;85.11;99813.34;5031031;28;20029;-78
2023/03/24 04:09:50;;;;;;;2.25;0.80;;;;;;;10.05;85.07;99810.94;5030061;28;20039;-78
2023/03/24 04:12:44;;;;;;;4.23;1.80;;;;;;;10.00;84.40;99819.75;5031172;28;20108;-79
2023/03/24 04:15:30;;;;;;;5.80;1.90;;;;;;;9.94;84.13;99829.53;5031694;28;20280;-78
2023/03/24 04:18:26;;;;;;;5.30;1.77;;;;;;;9.93;84.34;99846.03;5030440;28;20485;-78
2023/03/24 04:21:11;;;;;;;2.92;1.50;;;;;;;9.94;85.12;99852.94;5055010;28;20125;-78
2023/03/24 04:24:12;;;;;;;4.07;1.52;;;;;;;9.95;85.35;99862.41;5032775;28;20087;-79
2023/03/24 04:26:54;;;;;;;3.95;1.40;;;;;;;9.97;85.63;99877.06;4996367;28;20504;-79
2023/03/24 04:29:35;;;;;;;4.90;2.00;;;;;;;10.03;85.13;99882.00;5028629;28;20060;-80
2023/03/24 04:32:13;;;;;;;6.40;2.33;;;;;;;9.99;83.94;99880.41;5029007;28;20403;-79
2023/03/24 04:34:45;;;;;;;6.20;2.47;;;;;;;9.99;83.13;99877.81;5028694;28;20291;-78
2023/03/24 04:37:15;;;;;;;8.30;2.38;;;;;;;9.94;82.52;99866.78;5028319;28;20147;-78
2023/03/24 04:39:44;;;;;;;5.97;2.38;;;;;;;9.91;82.81;99881.63;5030593;28;20040;-78
2023/03/24 04:42:16;;;;;;;6.43;2.20;;;;;;;9.85;82.91;99891.34;5030298;28;20033;-78
2023/03/24 04:44:42;;;;;;;6.05;2.00;;;;;;;9.81;82.90;99887.19;5030582;28;20085;-78
2023/03/24 04:47:11;;;;;;;5.78;1.98;;;;;;;9.80;83.01;99890.69;5028655;28;20086;-79
2023/03/24 04:49:40;;;;;;;4.55;2.08;;;;;;;9.79;83.14;99904.56;5029379;28;20095;-79
2023/03/24 04:52:06;;;;;;;5.10;1.55;;;;;;;9.77;83.14;99906.38;5029642;28;20029;-79
2023/03/24 04:54:32;;;;;;;4.38;1.60;;;;;;;9.74;82.99;99906.47;5029879;28;20026;-79
2023/03/24 04:57:00;;;;;;;5.20;1.60;;;;;;;9.68;82.68;99901.53;5030470;28;20120;-79
2023/03/24 04:59:26;;;;;;;5.10;1.85;;;;;;;9.63;82.98;99899.13;5030688;28;20074;-79
2023/03/24 05:01:52;;;;;;;2.83;1.17;;;;;;;9.59;82.90;99917.44;5029670;28;20021;-79
2023/03/24 05:04:20;;;;;;;4.80;1.30;;;;;;;9.52;83.07;99915.09;5032245;28;20447;-80
2023/03/24 05:06:48;;;;;;;5.05;1.40;;;;;;;9.47;82.90;99914.41;5033513;28;20025;-79
2023/03/24 05:09:14;;;;;;;5.93;1.10;;;;;;;9.44;83.05;99924.88;5031871;28;20056;-79
2023/03/24 05:11:39;;;;;;;3.97;1.08;;;;;;;9.40;83.25;99928.50;5033722;28;20280;-79
2023/03/24 05:14:05;;;;;;;4.18;1.20;;;;;;;9.37;83.26;99920.84;5037136;28;20148;-79
2023/03/24 05:16:30;;;;;;;4.18;1.05;;;;;;;9.34;83.58;99926.97;5034729;28;20029;-79
2023/03/24 05:18:55;;;;;;;5.53;1.10;;;;;;;9.32;83.65;99926.16;5034465;28;20033;-79
2023/03/24 05:21:21;;;;;;;4.80;1.27;;;;;;;9.27;83.85;99934.13;5034274;28;20396;-79
2023/03/24 05:23:46;;;;;;;4.03;1.52;;;;;;;9.23;83.52;99948.09;5034587;28;20029;-79
2023/03/24 05:26:11;;;;;;;6.15;1.30;;;;;;;9.17;83.73;99948.34;5033599;28;20029;-80
2023/03/24 05:28:37;;;;;;;3.97;1.40;;;;;;;9.16;83.65;99950.97;5033851;28;20037;-79
2023/03/24 05:31:02;;;;;;;6.05;1.70;;;;;;;9.16;83.95;99961.34;5032224;28;20399;-79
2023/03/24 05:33:27;;;;;;;6.00;1.58;;;;;;;9.14;83.73;99958.81;5031840;28;20492;-79
2023/03/24 05:35:53;;;;;;;10.43;2.03;;;;;;;9.16;83.89;99957.00;5034395;28;20026;-79
2023/03/24 05:38:18;;;;;;;5.97;2.20;;;;;;;9.18;83.69;99962.13;5034455;28;20033;-79
2023/03/24 05:40:43;;;;;;;8.65;1.98;;;;;;;9.19;83.60;99966.44;5034161;28;20029;-79
2023/03/24 05:43:11;;;;;;;7.53;2.13;;;;;;;9.20;83.92;99971.59;5032754;28;20057;-79
2023/03/24 05:45:36;;;;;;;5.38;2.25;;;;;;;9.18;83.85;99970.78;5033230;28;20025;-79
2023/03/24 05:48:02;;;;;;;7.13;2.17;;;;;;;9.15;83.92;99970.88;5030897;28;20048;-79
2023/03/24 05:50:27;;;;;;;7.30;2.42;;;;;;;9.11;83.80;99972.75;5033353;28;20041;-79
2023/03/24 05:52:52;;;;;;;7.55;2.00;;;;;;;9.11;83.29;99977.06;5034044;28;20025;-79
2023/03/24 05:55:18;;;;;;;4.28;1.77;;;;;;;9.08;84.09;99974.56;5034948;28;20147;-79
2023/03/24 05:57:44;;;;;;;6.43;2.30;;;;;;;9.07;83.78;99983.25;5032385;28;20028;-79
2023/03/24 06:00:16;;;;;;;5.38;1.70;;;;;;;9.09;83.65;99995.28;5033484;28;20021;-79
2023/03/24 06:02:43;;;;;;;6.45;1.67;;;;;;;9.10;83.47;99991.81;5031353;28;20665;-79
2023/03/24 06:05:08;;;;;;;5.30;1.70;;;;;;;9.10;83.58;99989.22;5033479;28;20129;-79
2023/03/24 06:07:34;;;;;;;6.75;1.55;;;;;;;9.10;83.50;99985.75;5033424;28;20176;-79
2023/03/24 06:10:02;;;;;;;5.53;1.30;;;;;;;9.09;83.41;99989.25;5033475;28;20026;-79
2023/03/24 06:12:29;;;;;;;7.20;1.48;;;;;;;9.07;83.47;99985.84;5031633;28;20100;-79
2023/03/24 06:14:55;;;;;;;4.47;1.70;;;;;;;9.09;83.23;99991.84;5037192;28;20025;-79
2023/03/24 06:17:23;;;;;;;5.03;1.50;;;;;;;9.09;83.43;99992.69;5032197;28;20021;-79
2023/03/24 06:19:49;;;;;;;7.03;1.50;;;;;;;9.09;83.30;99987.50;5031786;28;20044;-79
2023/03/24 06:22:16;;;;;;;6.50;1.50;;;;;;;9.11;83.36;99984.84;5032396;28;20029;-79
2023/03/24 06:24:41;;;;;;;6.38;1.90;;;;;;;9.10;82.99;99998.72;5032052;28;20091;-79
2023/03/24 06:27:07;;;;;;;5.72;1.38;;;;;;;9.14;83.00;100002.91;5032211;28;20025;-79
2023/03/24 06:29:34;;;;;;;6.43;1.30;;;;;;;9.15;82.71;100001.16;5029759;28;21584;-79
2023/03/24 06:31:59;;;;;;;5.28;1.63;;;;;;;9.17;82.55;100009.75;5030184;28;20492;-79
2023/03/24 06:34:25;;;;;;;7.10;1.50;;;;;;;9.18;82.52;100009.72;5033072;28;20048;-79
2023/03/24 06:36:50;;;;;;;9.90;1.70;;;;;;;9.20;82.56;100013.09;5032666;28;20027;-79
2023/03/24 06:39:16;;;;;;;5.40;1.02;;;;;;;9.22;82.14;100007.84;5031947;28;20125;-79
2023/03/24 06:41:42;;;;;;;4.03;1.15;;;;;;;9.23;82.22;100009.56;5033010;28;20022;-79
2023/03/24 06:44:07;;;;;;;6.20;1.40;;;;;;;9.23;82.00;100010.38;5030978;28;20025;-79
2023/03/24 06:46:32;;;;;;;5.80;1.13;;;;;;;9.24;81.65;100012.09;5035557;28;20476;-79
2023/03/24 06:48:58;;;;;;;6.38;1.10;;;;;;;9.23;81.49;100028.56;5039167;28;20525;-79
2023/03/24 06:51:23;;;;;;;5.85;1.20;;;;;;;9.24;81.32;100025.06;5031766;28;20021;-80
2023/03/24 06:53:48;;;;;;;8.45;1.60;;;;;;;9.24;81.60;100027.66;5032648;28;20079;-80
2023/03/24 06:56:16;;;;;;;8.02;1.25;;;;;;;9.27;81.76;100037.94;5031375;28;20520;-79
2023/03/24 06:58:42;;;;;;;8.50;1.40;;;;;;;9.31;81.63;100032.66;5035839;28;20090;-80
2023/03/24 07:01:07;;;;;;;8.27;1.40;;;;;;;9.35;81.90;100027.31;5030378;28;20079;-78
2023/03/24 07:03:33;;;;;;;7.32;1.30;;;;;;;9.40;81.27;100032.31;5031887;28;20049;-80
2023/03/24 07:05:59;;;;;;;6.18;1.60;;;;;;;9.42;81.47;100035.72;5032306;28;20029;-79
2023/03/24 07:08:25;;;;;;;11.20;1.63;;;;;;;9.44;81.41;100033.09;5031351;28;20108;-79
2023/03/24 07:10:50;;;;;;;7.60;1.85;;;;;;;9.47;81.29;100033.81;5032583;28;20056;-79
2023/03/24 07:13:15;;;;;;;7.53;1.40;;;;;;;9.49;81.38;100042.41;5033079;28;20048;-79
2023/03/24 07:15:40;;;;;;;6.68;1.48;;;;;;;9.56;81.05;100048.25;5032708;28;20020;-80
2023/03/24 07:18:06;;;;;;;7.45;1.52;;;;;;;9.58;81.61;100046.44;5044944;28;20530;-79
2023/03/24 07:20:31;;;;;;;8.43;1.50;;;;;;;9.64;81.42;100047.97;5037170;28;20025;-79
2023/03/24 07:22:57;;;;;;;7.95;1.20;;;;;;;9.67;80.96;100050.47;5035549;28;20430;-80
2023/03/24 07:25:23;;;;;;;8.50;1.30;;;;;;;9.68;81.22;100057.38;5033485;28;20677;-79
2023/03/24 07:27:52;;;;;;;5.63;1.27;;;;;;;9.70;81.62;100051.22;5030431;28;20117;-78
2023/03/24 07:30:18;;;;;;;9.02;1.50;;;;;;;9.76;80.96;100049.31;5030693;28;20506;-79
2023/03/24 07:32:43;;;;;;;8.27;1.50;;;;;;;9.79;81.00;100044.84;5032269;28;20108;-79
2023/03/24 07:35:10;;;;;;;7.78;1.40;;;;;;;9.83;80.62;100059.44;5031110;28;20040;-79
2023/03/24 07:37:37;;;;;;;8.60;1.65;;;;;;;9.86;80.15;100061.91;5032762;28;20098;-79
2023/03/24 07:40:10;;;;;;;11.43;1.77;;;;;;;9.94;80.05;100063.38;5030650;28;20033;-79
2023/03/24 07:42:35;;;;;;;9.68;1.48;;;;;;;9.96;79.08;100064.19;5027845;28;20021;-79
2023/03/24 07:45:01;;;;;;;5.75;1.30;;;;;;;10.01;79.15;100075.25;5026259;28;20026;-80
2023/03/24 07:47:26;;;;;;;6.78;1.25;;;;;;;10.03;79.00;100068.25;5030609;28;20021;-80
2023/03/24 07:49:51;;;;;;;9.23;1.85;;;;;;;10.05;79.27;100074.25;5026667;28;20128;-80
2023/03/24 07:52:17;;;;;;;9.90;1.90;;;;;;;10.08;79.50;100050.72;5028209;28;20025;-79
2023/03/24 07:54:42;;;;;;;13.25;1.90;;;;;;;10.11;78.74;100068.81;5029986;28;20017;-80
2023/03/24 07:57:07;;;;;;;7.78;1.20;;;;;;;10.12;79.26;100072.28;5029507;28;20024;-80
2023/03/24 07:59:33;;;;;;;10.90;1.70;;;;;;;10.17;79.09;100081.59;5031343;28;20396;-80
2023/03/24 08:01:58;;;;;;;7.55;1.70;;;;;;;10.19;79.02;100086.72;5031093;28;20385;-80
2023/03/24 08:04:24;;;;;;;9.90;1.45;;;;;;;10.26;78.60;100092.56;5026949;28;20073;-81
2023/03/24 08:06:49;;;;;;;8.27;1.40;;;;;;;10.35;78.76;100097.44;5028921;28;20025;-79
2023/03/24 08:09:15;;;;;;;6.40;1.02;;;;;;;10.38;78.30;100099.97;5032831;28;20364;-79
2023/03/24 08:11:40;;;;;;;5.75;1.20;;;;;;;10.43;78.45;100108.41;5037182;28;20055;-80
2023/03/24 08:14:07;;;;;;;8.73;1.23;;;;;;;10.51;79.10;100109.91;5027480;28;20029;-80
2023/03/24 08:16:32;;;;;;;8.50;1.23;;;;;;;10.60;78.29;100107.81;5026273;28;20049;-79
2023/03/24 08:18:58;;;;;;;5.88;1.40;;;;;;;10.70;78.42;100104.84;5029609;28;20060;-80
2023/03/24 08:21:24;;;;;;;6.75;1.50;;;;;;;10.70;77.22;100121.31;5028469;28;20034;-81
2023/03/24 08:23:50;;;;;;;8.70;1.60;;;;;;;10.71;77.33;100123.00;5026895;28;20104;-79
2023/03/24 08:26:15;;;;;;;8.85;1.45;;;;;;;10.72;76.75;100118.63;5029248;28;20112;-80
2023/03/24 08:28:41;;;;;;;6.15;1.30;;;;;;;10.75;76.24;100115.91;5030299;28;20029;-80
2023/03/24 08:31:06;;;;;;;7.65;1.48;;;;;;;10.76;76.93;100128.03;5032730;28;20166;-80
2023/03/24 08:33:33;;;;;;;6.38;1.38;;;;;;;10.75;76.68;100129.78;5038431;28;20498;-79
2023/03/24 08:35:59;;;;;;;8.15;1.40;;;;;;;10.76;75.28;100147.06;5040328;28;20010;-80
2023/03/24 08:38:32;;;;;;;8.73;1.70;;;;;;;10.71;75.21;100141.22;5032454;28;20449;-80
2023/03/24 08:41:05;;;;;;;6.88;1.60;;;;;;;10.72;75.14;100142.91;5030317;28;20030;-82
2023/03/24 08:43:32;;;;;;;9.85;1.60;;;;;;;10.79;76.44;100135.72;5031795;28;20021;-80
2023/03/24 08:45:59;;;;;;;10.07;1.52;;;;;;;10.87;75.82;100138.03;5032178;28;20108;-79
2023/03/24 08:48:25;;;;;;;8.75;1.40;;;;;;;10.93;74.59;100143.00;5031041;28;20025;-80
2023/03/24 08:50:51;;;;;;;6.32;1.52;;;;;;;10.96;73.78;100148.06;5030453;28;20027;-80
2023/03/24 08:53:16;;;;;;;6.35;1.35;;;;;;;11.00;73.52;100154.84;5035545;28;20026;-80
2023/03/24 08:55:43;;;;;;;9.43;1.52;;;;;;;11.06;73.69;100133.81;5031638;28;20021;-80
2023/03/24 08:58:14;;;;;;;9.45;1.60;;;;;;;11.12;73.64;100137.06;5032161;28;20089;-79
2023/03/24 09:00:40;;;;;;;8.27;1.73;;;;;;;11.19;72.70;100143.72;5030635;28;20025;-80
2023/03/24 09:03:06;;;;;;;6.00;1.30;;;;;;;11.25;72.25;100143.50;5030955;28;20396;-80
2023/03/24 09:05:31;;;;;;;9.57;1.58;;;;;;;11.28;71.87;100142.53;5028827;28;20025;-80
2023/03/24 09:07:59;;;;;;;7.60;1.60;;;;;;;11.28;71.18;100142.53;5033157;28;20025;-79
2023/03/24 09:10:25;;;;;;;8.48;1.50;;;;;;;11.26;73.00;100146.94;5027211;28;20057;-80
2023/03/24 09:12:50;;;;;;;6.97;1.30;;;;;;;11.24;72.57;100147.00;5030203;28;20048;-79
2023/03/24 09:15:16;;;;;;;7.78;1.27;;;;;;;11.28;72.42;100137.31;5030793;28;20024;-79
2023/03/24 09:17:41;;;;;;;6.78;1.17;;;;;;;11.32;72.15;100151.91;5027504;28;20040;-80
2023/03/24 09:20:10;;;;;;;6.50;1.40;;;;;;;11.34;71.40;100148.31;5027951;28;20022;-80
2023/03/24 09:22:40;;;;;;;7.78;1.50;;;;;;;11.36;72.33;100150.84;5042098;28;20372;-80
2023/03/24 09:25:06;;;;;;;4.13;1.25;;;;;;;11.38;72.18;100155.13;5031831;28;20446;-80
2023/03/24 09:27:32;;;;;;;7.20;1.50;;;;;;;11.42;71.81;100162.81;5028457;28;20026;-80
2023/03/24 09:29:57;;;;;;;8.55;1.80;;;;;;;11.46;72.48;100159.16;5029077;28;20032;-79
2023/03/24 09:32:22;;;;;;;4.85;1.30;;;;;;;11.51;71.43;100157.22;5028726;28;20025;-79
2023/03/24 09:34:48;;;;;;;5.88;1.33;;;;;;;11.56;71.75;100155.28;5029123;28;20085;-79
2023/03/24 09:37:13;;;;;;;6.45;1.60;;;;;;;11.59;71.37;100162.97;5031339;28;20037;-79
2023/03/24 09:39:38;;;;;;;6.85;1.50;;;;;;;11.60;70.28;100167.28;5032980;28;20029;-80
2023/03/24 09:42:05;;;;;;;8.82;1.95;;;;;;;11.57;70.73;100167.41;5031472;28;20041;-80
2023/03/24 09:44:34;;;;;;;10.45;1.80;;;;;;;11.51;70.88;100159.81;5027698;28;20567;-79
2023/03/24 09:47:10;;;;;;;6.28;1.63;;;;;;;11.45;71.70;100170.47;5027305;28;20037;-79
2023/03/24 09:49:40;;;;;;;4.78;1.23;;;;;;;11.42;74.24;100181.03;5031256;28;20361;-80
2023/03/24 09:52:11;;;;;;;8.32;1.73;;;;;;;11.33;75.80;100187.47;5025295;28;20091;-79
2023/03/24 09:55:02;;;;;;;11.10;2.00;;;;;;;11.26;75.64;100186.84;5028665;28;20022;-79
2023/03/24 09:57:35;;;;;;;7.35;1.65;;;;;;;11.18;76.45;100183.69;5030482;28;20460;-80
2023/03/24 10:00:16;;;;;;;6.20;1.58;;;;;;;11.11;77.00;100193.50;5024266;28;20420;-80
2023/03/24 10:02:42;;;;;;;6.80;1.50;;;;;;;11.12;78.21;100189.13;5030486;28;20136;-79
2023/03/24 10:05:24;;;;;;;6.22;1.50;;;;;;;11.26;77.53;100192.06;5031262;28;20838;-79
2023/03/24 10:07:56;;;;;;;5.18;1.63;;;;;;;11.37;75.82;100195.09;5029027;28;20021;-80
2023/03/24 10:10:28;;;;;;;;;;;;;;;11.46;75.22;100190.41;5028262;28;20037;-80
2023/03/24 10:13:04;;;;;;;9.43;1.80;;;;;;;11.45;73.83;100212.16;5028774;28;19921;-80
2023/03/24 10:15:43;;;;;;;6.90;1.90;;;;;;;11.50;73.44;100210.22;5030883;28;20056;-80
2023/03/24 10:18:11;;;;;;;7.75;1.80;;;;;;;11.56;73.25;100202.16;5029662;28;20775;-80
2023/03/24 10:21:01;;;;;;;10.60;1.92;;;;;;;11.65;73.57;100196.56;5027154;28;20048;-79
2023/03/24 10:23:50;;;;;;;9.38;1.70;;;;;;;11.76;72.88;100200.50;5029915;28;20024;-80
2023/03/24 10:26:34;;;;;;;8.55;1.63;;;;;;;11.79;72.53;100190.81;5028068;28;20469;-80
2023/03/24 10:29:12;;;;;;;9.73;1.88;;;;;;;11.84;71.48;100193.22;5026071;28;20116;-80
2023/03/24 10:31:39;;;;;;;6.65;1.67;;;;;;;11.94;70.61;100202.38;5027448;28;20410;-80
2023/03/24 10:34:08;;;;;;;9.00;1.60;;;;;;;11.96;71.05;100210.94;5027295;28;20029;-80
2023/03/24 10:36:34;;;;;;;7.95;1.50;;;;;;;11.98;70.71;100203.94;5029275;28;20033;-80
2023/03/24 10:39:00;;;;;;;5.30;1.30;;;;;;;11.93;70.56;100200.66;5031350;28;21075;-80
2023/03/24 10:41:27;;;;;;;9.10;1.60;;;;;;;11.90;70.29;100198.19;5028825;28;20055;-80
2023/03/24 10:43:56;;;;;;;4.88;1.30;;;;;;;11.85;69.82;100200.13;5027859;28;20033;-80
2023/03/24 10:46:25;;;;;;;5.47;1.45;;;;;;;11.82;69.95;100202.84;5026656;28;20021;-81
2023/03/24 10:49:05;;;;;;;7.40;1.40;;;;;;;11.79;67.95;100197.75;5026962;28;20091;-80
2023/03/24 10:51:33;;;;;;;3.83;1.02;;;;;;;11.81;68.46;100199.41;5029663;28;20030;-80
2023/03/24 10:54:21;;;;;;;4.93;1.30;;;;;;;11.89;69.41;100193.00;5025523;28;20108;-80
2023/03/24 10:56:49;;;;;;;5.28;1.30;;;;;;;11.98;68.08;100190.91;5027911;28;20115;-80
2023/03/24 10:59:36;;;;;;;5.72;1.35;;;;;;;12.14;69.01;100192.84;5027874;28;20037;-80
2023/03/24 11:02:16;;;;;;;6.10;1.13;;;;;;;12.21;68.03;100181.25;5026868;28;20032;-80
2023/03/24 11:04:50;;;;;;;5.47;1.42;;;;;;;12.20;66.07;100190.00;5027295;28;20087;-80
2023/03/24 11:07:16;;;;;;;4.85;1.17;;;;;;;12.20;65.99;100184.78;5024047;28;20029;-80
2023/03/24 11:09:44;;;;;;;4.50;1.33;;;;;;;12.27;66.55;100181.00;5027748;28;20088;-79
2023/03/24 11:12:21;;;;;;;4.22;1.10;;;;;;;12.41;67.01;100193.41;5028364;28;20112;-81
2023/03/24 11:14:46;;;;;;;4.38;1.20;;;;;;;12.50;64.30;100186.13;5027132;28;20466;-80
2023/03/24 11:17:16;;;;;;;6.25;1.30;;;;;;;12.60;65.69;100187.38;5026274;28;20060;-80
2023/03/24 11:19:52;;;;;;;6.43;1.35;;;;;;;12.70;66.31;100195.66;5026106;28;20087;-80
2023/03/24 11:22:18;;;;;;;5.60;1.40;;;;;;;12.75;65.44;100191.09;5024284;28;20036;-80
2023/03/24 11:24:48;;;;;;;4.45;1.50;;;;;;;12.82;64.73;100202.91;5028467;28;20028;-80
2023/03/24 11:27:15;;;;;;;7.13;1.35;;;;;;;12.98;64.61;100183.97;5025926;28;20041;-81
2023/03/24 11:29:42;;;;;;;5.57;1.40;;;;;;;13.08;63.98;100192.19;5029973;28;20120;-80
2023/03/24 11:32:26;;;;;;;4.63;1.60;;;;;;;13.10;64.17;100199.06;5027362;28;20029;-81
2023/03/24 11:35:03;;;;;;;6.72;1.30;;;;;;;13.03;63.66;100189.81;5027765;28;20484;-80
2023/03/24 11:37:32;;;;;;;4.80;1.20;;;;;;;12.96;62.77;100188.41;5030810;28;20050;-80
2023/03/24 11:40:14;;;;;;;5.05;1.60;;;;;;;12.96;64.47;100177.97;5027124;28;20061;-80
2023/03/24 11:42:47;;;;;;;5.82;1.30;;;;;;;13.02;64.08;100177.66;5025852;28;20048;-80
2023/03/24 11:45:31;;;;;;;4.15;1.23;;;;;;;13.13;64.11;100169.34;5029414;28;20120;-80
2023/03/24 11:47:58;;;;;;;4.65;1.33;;;;;;;13.20;62.00;100170.75;5028033;28;20029;-80